createdAt,value
2023-05-12T00:02:03.610Z,11.80
2023-05-12T00:12:52.281Z,11.63
2023-05-12T00:23:37.751Z,11.47
2023-05-12T00:34:45.242Z,11.39
2023-05-12T00:44:54.734Z,11.19
2023-05-12T00:55:05.814Z,11.09
2023-05-12T01:05:15.450Z,11.03
2023-05-12T01:16:00.485Z,10.95
2023-05-12T01:26:11.517Z,10.82
2023-05-12T01:36:18.217Z,10.79
2023-05-12T01:46:23.433Z,10.76
2023-05-12T01:56:36.573Z,10.63
2023-05-12T02:07:27.369Z,10.52
2023-05-12T02:17:33.411Z,10.31
2023-05-12T02:27:45.347Z,10.13
2023-05-12T02:37:51.668Z,10.11
2023-05-12T02:48:08.204Z,9.94
2023-05-12T02:59:13.857Z,9.88
2023-05-12T03:09:42.235Z,10.07
2023-05-12T03:19:46.122Z,10.44
2023-05-12T03:30:35.803Z,10.83
2023-05-12T03:40:55.786Z,11.12
2023-05-12T03:51:01.874Z,12.09
2023-05-12T04:01:08.840Z,14.70
2023-05-12T04:11:14.350Z,23.04
2023-05-12T04:21:20.153Z,28.59
2023-05-12T04:32:27.560Z,33.04
2023-05-12T04:42:31.969Z,36.25
2023-05-12T04:52:40.256Z,38.32
2023-05-12T05:02:49.472Z,40.04
2023-05-12T05:13:03.279Z,40.74
2023-05-12T05:23:07.677Z,39.04
2023-05-12T05:33:14.347Z,33.08
2023-05-12T05:43:19.225Z,28.48
2023-05-12T05:54:26.686Z,25.19
2023-05-12T06:04:32.231Z,22.96
2023-05-12T06:14:41.238Z,21.80
2023-05-12T06:24:46.522Z,21.05
2023-05-12T06:35:32.057Z,20.52
2023-05-12T06:46:24.596Z,20.15
2023-05-12T06:56:30.560Z,20.04
2023-05-12T07:06:37.645Z,20.12
2023-05-12T07:17:46.172Z,20.12
2023-05-12T07:28:38.683Z,20.04
2023-05-12T07:38:45.900Z,20.18
2023-05-12T07:48:53.324Z,20.48
2023-05-12T07:59:02.612Z,20.58
2023-05-12T08:09:09.802Z,20.70
2023-05-12T08:19:14.969Z,20.69
2023-05-12T08:29:20.887Z,20.84
2023-05-12T08:39:31.339Z,20.97
2023-05-12T08:49:44.549Z,20.99
2023-05-12T08:59:59.565Z,21.11
2023-05-12T09:10:13.362Z,21.27
2023-05-12T09:20:31.797Z,21.12
2023-05-12T09:30:41.182Z,21.24
2023-05-12T09:40:48.566Z,21.31
2023-05-12T09:50:59.208Z,21.52
2023-05-12T10:01:21.713Z,21.73
2023-05-12T10:12:11.764Z,21.86
2023-05-12T10:23:20.746Z,22.04
2023-05-12T10:33:28.271Z,21.98
2023-05-12T10:43:44.136Z,22.15
2023-05-12T10:53:54.883Z,22.31
2023-05-12T11:05:29.722Z,22.52
2023-05-12T11:16:17.912Z,22.37
2023-05-12T11:26:31.729Z,22.54
2023-05-12T11:36:59.564Z,22.81
2023-05-12T11:48:16.742Z,22.95
2023-05-12T11:58:31.666Z,22.93
2023-05-12T12:08:41.163Z,23.28
2023-05-12T12:20:09.542Z,23.52
2023-05-12T12:30:16.190Z,23.84
2023-05-12T12:40:25.691Z,23.93
2023-05-12T12:50:39.566Z,23.88
2023-05-12T13:00:45.333Z,23.81
2023-05-12T13:10:51.258Z,23.84
2023-05-12T13:20:57.148Z,23.74
2023-05-12T13:31:03.586Z,24.26
2023-05-12T13:42:28.460Z,24.64
2023-05-12T13:53:35.288Z,25.45
2023-05-12T14:03:51.543Z,25.62
2023-05-12T14:14:01.023Z,25.70
2023-05-12T14:24:07.760Z,25.82
2023-05-12T14:34:16.671Z,26.00
2023-05-12T14:44:23.791Z,26.13
2023-05-12T14:54:31.288Z,25.65
2023-05-12T15:04:37.285Z,25.68
2023-05-12T15:14:41.618Z,25.64
2023-05-12T15:24:49.283Z,24.52
2023-05-12T15:34:57.987Z,24.89
2023-05-12T15:45:06.407Z,24.82
2023-05-12T15:56:28.403Z,24.37
2023-05-12T16:07:36.490Z,22.96
2023-05-12T16:17:43.713Z,22.47
2023-05-12T16:27:49.018Z,22.21
2023-05-12T16:38:53.710Z,22.08
2023-05-12T16:48:58.513Z,22.39
2023-05-12T16:59:07.918Z,22.25
2023-05-12T17:09:15.360Z,22.10
2023-05-12T17:19:19.051Z,22.25
2023-05-12T17:29:28.715Z,22.28
2023-05-12T17:39:33.082Z,22.06
2023-05-12T17:49:42.478Z,21.66
2023-05-12T17:59:49.066Z,21.19
2023-05-12T18:10:54.110Z,20.70
2023-05-12T18:21:01.297Z,20.00
2023-05-12T18:31:28.550Z,19.38
2023-05-12T18:42:19.306Z,18.92
2023-05-12T18:52:25.472Z,18.52
2023-05-12T19:03:10.133Z,18.22
2023-05-12T19:13:19.715Z,17.79
2023-05-12T19:24:01.430Z,17.38
2023-05-12T19:35:12.568Z,16.95
2023-05-12T19:46:01.284Z,16.56
2023-05-12T19:56:54.650Z,16.30
2023-05-12T20:07:03.104Z,15.96
2023-05-12T20:17:48.649Z,15.74
2023-05-12T20:27:55.615Z,15.49
2023-05-12T20:38:04.719Z,15.16
2023-05-12T20:48:13.797Z,15.19
2023-05-12T20:58:25.691Z,15.06
2023-05-12T21:08:39.329Z,14.80
2023-05-12T21:18:46.384Z,14.71
2023-05-12T21:29:52.057Z,14.38
2023-05-12T21:39:59.316Z,14.06
2023-05-12T21:50:08.432Z,14.09
2023-05-12T22:00:20.555Z,14.06
2023-05-12T22:10:28.226Z,13.94
2023-05-12T22:20:59.412Z,13.79
2023-05-12T22:31:06.709Z,13.61
2023-05-12T22:42:21.964Z,13.50
2023-05-12T22:53:23.417Z,13.06
2023-05-12T23:03:37.537Z,12.89
2023-05-12T23:14:44.915Z,13.00
2023-05-12T23:25:33.102Z,12.79
2023-05-12T23:35:50.840Z,12.69
2023-05-12T23:45:56.289Z,12.53
2023-05-12T23:56:20.828Z,12.42
